createdAt,value
2022-10-01T00:01:14.250Z,72.88
2022-10-01T00:03:42.940Z,71.87
2022-10-01T00:06:14.089Z,72.04
2022-10-01T00:08:43.442Z,73.02
2022-10-01T00:11:13.524Z,73.22
2022-10-01T00:13:44.278Z,73.10
2022-10-01T00:16:14.655Z,73.28
2022-10-01T00:18:44.345Z,72.19
2022-10-01T00:21:14.005Z,71.99
2022-10-01T00:23:42.917Z,72.73
2022-10-01T00:26:14.865Z,72.88
2022-10-01T00:28:45.834Z,73.36
2022-10-01T00:31:15.372Z,74.39
2022-10-01T00:33:43.606Z,74.02
2022-10-01T00:36:12.674Z,74.03
2022-10-01T00:38:41.242Z,72.65
2022-10-01T00:41:10.963Z,73.00
2022-10-01T00:43:43.847Z,73.74
2022-10-01T00:46:18.857Z,74.56
2022-10-01T00:48:53.622Z,73.87
2022-10-01T00:51:21.633Z,73.58
2022-10-01T00:53:49.429Z,75.28
2022-10-01T00:56:17.344Z,74.82
2022-10-01T00:58:45.386Z,75.66
2022-10-01T01:01:13.210Z,74.83
2022-10-01T01:03:42.344Z,74.26
2022-10-01T01:06:09.975Z,73.73
2022-10-01T01:08:37.663Z,75.58
2022-10-01T01:11:11.376Z,74.38
2022-10-01T01:13:50.222Z,75.55
2022-10-01T01:16:25.434Z,74.57
2022-10-01T01:19:03.598Z,74.38
2022-10-01T01:21:33.722Z,76.11
2022-10-01T01:24:30.836Z,75.23
2022-10-01T01:27:19.969Z,76.18
2022-10-01T01:29:54.288Z,76.61
2022-10-01T01:32:28.534Z,76.34
2022-10-01T01:35:02.650Z,76.41
2022-10-01T01:37:39.068Z,74.68
2022-10-01T01:40:12.303Z,74.89
2022-10-01T01:42:44.629Z,76.25
2022-10-01T01:45:18.589Z,76.92
2022-10-01T01:47:47.247Z,75.73
2022-10-01T01:50:18.741Z,75.84
2022-10-01T01:52:46.527Z,76.71
2022-10-01T01:55:14.275Z,76.76
2022-10-01T01:57:44.674Z,75.74
2022-10-01T02:00:14.862Z,75.50
2022-10-01T02:02:48.121Z,76.17
2022-10-01T02:05:19.370Z,75.36
2022-10-01T02:08:12.679Z,77.73
2022-10-01T02:11:00.598Z,76.75
2022-10-01T02:13:41.123Z,76.64
2022-10-01T02:16:19.146Z,76.55
2022-10-01T02:18:51.459Z,77.05
2022-10-01T02:21:22.524Z,76.35
2022-10-01T02:23:53.662Z,76.29
2022-10-01T02:26:24.235Z,76.35
2022-10-01T02:28:55.805Z,76.13
2022-10-01T02:31:25.193Z,76.29
2022-10-01T02:33:55.888Z,76.51
2022-10-01T02:36:26.552Z,77.61
2022-10-01T02:38:56.541Z,76.71
2022-10-01T02:41:28.307Z,77.58
2022-10-01T02:43:59.378Z,77.87
2022-10-01T02:46:33.039Z,78.14
2022-10-01T02:49:02.880Z,77.83
2022-10-01T02:51:39.319Z,76.67
2022-10-01T02:54:12.196Z,76.85
2022-10-01T02:56:58.931Z,76.52
2022-10-01T02:59:26.548Z,75.77
2022-10-01T03:01:55.801Z,75.94
2022-10-01T03:04:23.505Z,75.18
2022-10-01T03:06:51.163Z,74.91
2022-10-01T03:09:18.846Z,74.84
2022-10-01T03:11:47.372Z,75.62
2022-10-01T03:14:14.986Z,74.91
2022-10-01T03:16:42.626Z,76.00
2022-10-01T03:19:11.673Z,76.01
2022-10-01T03:21:39.357Z,76.16
2022-10-01T03:24:07.536Z,75.54
2022-10-01T03:26:36.394Z,74.94
2022-10-01T03:29:04.318Z,74.41
2022-10-01T03:31:33.234Z,75.87
2022-10-01T03:34:01.396Z,75.47
2022-10-01T03:36:31.287Z,78.35
2022-10-01T03:38:58.933Z,79.78
2022-10-01T03:41:26.950Z,80.80
2022-10-01T03:43:59.650Z,80.84
2022-10-01T03:46:28.119Z,83.56
2022-10-01T03:48:57.282Z,84.12
2022-10-01T03:51:25.179Z,87.37
2022-10-01T03:53:54.283Z,88.08
2022-10-01T03:56:21.937Z,87.59
2022-10-01T03:58:49.715Z,90.41
2022-10-01T04:01:17.445Z,91.38
2022-10-01T04:03:45.239Z,91.15
2022-10-01T04:06:13.355Z,92.16
2022-10-01T04:08:41.232Z,91.49
2022-10-01T04:11:10.481Z,90.43
2022-10-01T04:13:38.430Z,91.71
2022-10-01T04:16:07.113Z,91.93
2022-10-01T04:18:35.480Z,91.72
2022-10-01T04:21:03.535Z,92.15
2022-10-01T04:23:31.649Z,95.29
2022-10-01T04:26:01.022Z,93.34
2022-10-01T04:28:30.821Z,93.41
2022-10-01T04:31:12.538Z,94.57
2022-10-01T04:33:40.196Z,94.74
2022-10-01T04:36:07.996Z,95.20
2022-10-01T04:38:35.767Z,95.95
2022-10-01T04:41:03.423Z,96.05
2022-10-01T04:43:32.442Z,95.96
2022-10-01T04:46:00.133Z,95.18
2022-10-01T04:48:27.919Z,94.98
2022-10-01T04:50:55.587Z,94.28
2022-10-01T04:53:23.258Z,94.67
2022-10-01T04:55:50.972Z,96.23
2022-10-01T04:58:18.936Z,94.53
2022-10-01T05:00:49.494Z,95.13
2022-10-01T05:03:17.304Z,94.82
2022-10-01T05:05:45.052Z,95.32
2022-10-01T05:08:12.787Z,95.94
2022-10-01T05:10:40.576Z,95.22
2022-10-01T05:13:08.403Z,95.48
2022-10-01T05:15:36.842Z,96.00
2022-10-01T05:18:05.956Z,96.72
2022-10-01T05:20:34.624Z,97.40
2022-10-01T05:23:02.331Z,96.56
2022-10-01T05:25:30.009Z,99.05
2022-10-01T05:28:05.744Z,98.83
2022-10-01T05:30:34.945Z,99.26
2022-10-01T05:33:05.541Z,98.09
2022-10-01T05:35:33.481Z,99.59
2022-10-01T05:38:02.704Z,100.00
2022-10-01T05:40:31.167Z,99.86
2022-10-01T05:42:59.949Z,100.00
2022-10-01T05:45:28.829Z,99.36
2022-10-01T05:48:01.427Z,100.00
2022-10-01T05:50:32.258Z,100.00
2022-10-01T05:53:00.556Z,100.00
2022-10-01T05:55:31.747Z,100.00
2022-10-01T05:58:01.496Z,100.00
2022-10-01T06:00:30.479Z,100.00
2022-10-01T06:02:58.794Z,100.00
2022-10-01T06:05:27.638Z,100.00
2022-10-01T06:07:57.147Z,100.00
2022-10-01T06:10:26.283Z,100.00
2022-10-01T06:13:00.305Z,100.00
2022-10-01T06:15:28.457Z,98.96
2022-10-01T06:17:56.190Z,100.00
2022-10-01T06:20:24.094Z,100.00
2022-10-01T06:22:57.126Z,100.00
2022-10-01T06:25:25.399Z,100.00
2022-10-01T06:27:57.941Z,100.00
2022-10-01T06:30:27.543Z,100.00
2022-10-01T06:33:00.109Z,100.00
2022-10-01T06:35:27.841Z,100.00
2022-10-01T06:37:56.900Z,100.00
2022-10-01T06:40:24.672Z,100.00
2022-10-01T06:42:56.613Z,100.00
2022-10-01T06:45:24.703Z,100.00
2022-10-01T06:47:55.426Z,100.00
2022-10-01T06:50:23.293Z,100.00
2022-10-01T06:52:50.327Z,100.00
2022-10-01T06:55:20.247Z,100.00
2022-10-01T06:57:50.251Z,100.00
2022-10-01T07:00:18.112Z,100.00
2022-10-01T07:02:45.821Z,100.00
2022-10-01T07:05:14.833Z,100.00
2022-10-01T07:07:43.279Z,100.00
2022-10-01T07:10:12.562Z,100.00
2022-10-01T07:12:41.752Z,100.00
2022-10-01T07:15:10.552Z,100.00
2022-10-01T07:17:44.922Z,100.00
2022-10-01T07:20:13.025Z,100.00
2022-10-01T07:22:40.743Z,100.00
2022-10-01T07:25:09.356Z,100.00
2022-10-01T07:27:37.517Z,100.00
2022-10-01T07:30:08.262Z,100.00
2022-10-01T07:32:36.258Z,100.00
2022-10-01T07:35:05.102Z,100.00
2022-10-01T07:37:32.927Z,100.00
2022-10-01T07:40:05.254Z,100.00
2022-10-01T07:42:35.238Z,100.00
2022-10-01T07:45:04.285Z,100.00
2022-10-01T07:47:33.434Z,100.00
2022-10-01T07:50:01.283Z,100.00
2022-10-01T07:52:29.010Z,100.00
2022-10-01T07:54:56.649Z,100.00
2022-10-01T07:57:24.341Z,100.00
2022-10-01T07:59:55.701Z,100.00
2022-10-01T08:02:24.019Z,100.00
2022-10-01T08:05:12.874Z,100.00
2022-10-01T08:07:40.558Z,100.00
2022-10-01T08:10:08.791Z,100.00
2022-10-01T08:12:36.452Z,100.00
2022-10-01T08:15:06.452Z,100.00
2022-10-01T08:17:34.867Z,100.00
2022-10-01T08:20:05.110Z,100.00
2022-10-01T08:22:32.954Z,100.00
2022-10-01T08:25:00.828Z,100.00
2022-10-01T08:27:29.048Z,100.00
2022-10-01T08:29:56.971Z,100.00
2022-10-01T08:32:25.421Z,100.00
2022-10-01T08:34:56.774Z,100.00
2022-10-01T08:37:30.456Z,100.00
2022-10-01T08:39:58.269Z,100.00
2022-10-01T08:42:42.833Z,100.00
2022-10-01T08:45:14.381Z,100.00
2022-10-01T08:47:49.540Z,100.00
2022-10-01T08:50:29.933Z,100.00
2022-10-01T08:53:02.667Z,100.00
2022-10-01T08:55:36.605Z,100.00
2022-10-01T08:58:06.579Z,100.00
2022-10-01T09:00:37.212Z,100.00
2022-10-01T09:03:08.938Z,100.00
2022-10-01T09:05:48.020Z,100.00
2022-10-01T09:08:43.433Z,100.00
2022-10-01T09:11:18.752Z,100.00
2022-10-01T09:14:10.559Z,100.00
2022-10-01T09:16:46.534Z,100.00
2022-10-01T09:19:25.741Z,100.00
2022-10-01T09:21:57.726Z,100.00
2022-10-01T09:24:42.129Z,100.00
2022-10-01T09:27:15.635Z,100.00
2022-10-01T09:29:48.962Z,100.00
2022-10-01T09:32:21.704Z,100.00
2022-10-01T09:34:51.428Z,100.00
2022-10-01T09:37:30.018Z,100.00
2022-10-01T09:40:14.769Z,100.00
2022-10-01T09:42:43.285Z,100.00
2022-10-01T09:45:13.304Z,100.00
2022-10-01T09:47:43.700Z,100.00
2022-10-01T09:50:17.315Z,100.00
2022-10-01T09:52:48.656Z,100.00
2022-10-01T09:55:29.148Z,100.00
2022-10-01T09:58:02.610Z,100.00
2022-10-01T10:00:33.768Z,100.00
2022-10-01T10:03:01.835Z,100.00
2022-10-01T10:05:31.494Z,100.00
2022-10-01T10:08:03.735Z,100.00
2022-10-01T10:10:36.047Z,100.00
2022-10-01T10:13:09.551Z,100.00
2022-10-01T10:15:42.272Z,100.00
2022-10-01T10:18:20.288Z,98.10
2022-10-01T10:20:53.901Z,99.43
2022-10-01T10:23:23.035Z,98.03
2022-10-01T10:25:59.927Z,98.15
2022-10-01T10:28:29.477Z,96.70
2022-10-01T10:30:58.726Z,95.35
2022-10-01T10:33:27.384Z,96.68
2022-10-01T10:36:01.735Z,96.17
2022-10-01T10:38:32.306Z,99.20
2022-10-01T10:41:03.913Z,99.06
2022-10-01T10:43:35.152Z,96.08
2022-10-01T10:46:03.865Z,96.79
2022-10-01T10:48:38.565Z,97.43
2022-10-01T10:51:07.122Z,97.51
2022-10-01T10:53:43.908Z,97.09
2022-10-01T10:56:22.651Z,95.46
2022-10-01T10:58:51.494Z,93.36
2022-10-01T11:01:26.736Z,93.37
2022-10-01T11:03:58.226Z,95.39
2022-10-01T11:06:26.261Z,95.59
2022-10-01T11:09:00.428Z,93.89
2022-10-01T11:11:48.042Z,91.36
2022-10-01T11:14:31.004Z,91.60
2022-10-01T11:17:20.450Z,91.01
2022-10-01T11:20:24.426Z,93.97
2022-10-01T11:23:06.385Z,92.18
2022-10-01T11:25:44.003Z,92.76
2022-10-01T11:28:32.693Z,92.09
2022-10-01T11:31:10.273Z,91.68
2022-10-01T11:33:47.051Z,89.50
2022-10-01T11:36:25.413Z,90.36
2022-10-01T11:38:59.585Z,90.06
2022-10-01T11:41:32.178Z,89.68
2022-10-01T11:44:06.690Z,87.23
2022-10-01T11:46:42.603Z,86.35
2022-10-01T11:49:29.127Z,87.08
2022-10-01T11:52:07.958Z,86.51
2022-10-01T11:54:37.955Z,85.25
2022-10-01T11:57:23.573Z,84.63
2022-10-01T11:59:57.660Z,83.82
2022-10-01T12:02:31.504Z,85.37
2022-10-01T12:05:02.585Z,84.76
2022-10-01T12:07:38.208Z,83.48
2022-10-01T12:10:19.155Z,83.51
2022-10-01T12:12:52.736Z,83.69
2022-10-01T12:15:29.106Z,84.14
2022-10-01T12:18:06.061Z,84.66
2022-10-01T12:20:39.056Z,82.26
2022-10-01T12:23:12.157Z,82.20
2022-10-01T12:25:47.226Z,84.00
2022-10-01T12:28:20.440Z,83.87
2022-10-01T12:30:57.026Z,85.13
2022-10-01T12:33:43.755Z,83.71
2022-10-01T12:36:19.306Z,84.91
2022-10-01T12:39:03.309Z,82.41
2022-10-01T12:41:45.547Z,82.68
2022-10-01T12:44:37.088Z,84.23
2022-10-01T12:47:17.385Z,82.16
2022-10-01T12:49:50.986Z,81.62
2022-10-01T12:52:33.576Z,80.66
2022-10-01T12:55:17.945Z,80.23
2022-10-01T12:57:57.076Z,80.21
2022-10-01T13:00:27.302Z,78.59
2022-10-01T13:03:20.207Z,79.01
2022-10-01T13:06:02.874Z,78.61
2022-10-01T13:08:43.260Z,81.02
2022-10-01T13:11:21.515Z,79.71
2022-10-01T13:13:51.431Z,80.71
2022-10-01T13:16:26.264Z,80.84
2022-10-01T13:19:04.298Z,83.56
2022-10-01T13:21:46.748Z,86.04
2022-10-01T13:24:22.178Z,88.89
2022-10-01T13:26:56.032Z,90.20
2022-10-01T13:29:36.097Z,89.04
2022-10-01T13:32:25.083Z,86.93
2022-10-01T13:34:54.664Z,85.34
2022-10-01T13:37:34.339Z,87.33
2022-10-01T13:40:03.078Z,88.94
2022-10-01T13:42:38.668Z,88.58
2022-10-01T13:45:10.990Z,87.17
2022-10-01T13:47:41.228Z,88.88
2022-10-01T13:50:23.741Z,89.26
2022-10-01T13:52:51.997Z,91.28
2022-10-01T13:55:28.671Z,91.64
2022-10-01T13:58:04.133Z,91.21
2022-10-01T14:00:31.851Z,90.79
2022-10-01T14:03:06.782Z,90.60
2022-10-01T14:05:39.457Z,89.20
2022-10-01T14:08:19.153Z,89.29
2022-10-01T14:11:10.168Z,88.48
2022-10-01T14:14:02.858Z,87.55
2022-10-01T14:16:32.705Z,89.85
2022-10-01T14:19:00.684Z,87.28
2022-10-01T14:21:48.411Z,88.29
2022-10-01T14:24:26.308Z,88.74
2022-10-01T14:26:58.275Z,87.30
2022-10-01T14:29:41.800Z,87.17
2022-10-01T14:32:23.297Z,88.92
2022-10-01T14:35:07.096Z,88.82
2022-10-01T14:37:40.092Z,88.20
2022-10-01T14:40:19.626Z,88.36
2022-10-01T14:42:58.199Z,89.53
2022-10-01T14:45:26.379Z,88.76
2022-10-01T14:48:02.359Z,88.19
2022-10-01T14:50:33.258Z,87.78
2022-10-01T14:53:02.523Z,89.00
2022-10-01T14:55:30.548Z,88.92
2022-10-01T14:57:59.669Z,88.83
2022-10-01T15:00:29.397Z,87.05
2022-10-01T15:03:05.123Z,87.68
2022-10-01T15:05:34.617Z,87.78
2022-10-01T15:08:13.356Z,87.92
2022-10-01T15:10:45.319Z,89.50
2022-10-01T15:13:21.160Z,89.52
2022-10-01T15:15:49.079Z,89.28
2022-10-01T15:18:18.562Z,90.73
2022-10-01T15:20:55.622Z,89.45
2022-10-01T15:23:26.490Z,89.49
2022-10-01T15:25:55.004Z,89.57
2022-10-01T15:28:32.020Z,90.28
2022-10-01T15:31:03.360Z,90.92
2022-10-01T15:33:33.657Z,91.45
2022-10-01T15:36:05.077Z,90.30
2022-10-01T15:38:34.821Z,90.74
2022-10-01T15:41:26.781Z,90.76
2022-10-01T15:43:53.210Z,88.56
2022-10-01T15:46:29.243Z,88.61
2022-10-01T15:49:25.998Z,90.71
2022-10-01T15:52:15.795Z,89.35
2022-10-01T15:54:47.081Z,90.94
2022-10-01T15:57:20.860Z,90.61
2022-10-01T15:59:49.850Z,91.28
2022-10-01T16:02:22.403Z,91.03
2022-10-01T16:04:53.023Z,90.78
2022-10-01T16:07:23.383Z,90.15
2022-10-01T16:09:59.260Z,91.41
2022-10-01T16:12:29.016Z,92.93
2022-10-01T16:15:01.371Z,92.38
2022-10-01T16:17:31.803Z,91.78
2022-10-01T16:20:01.574Z,90.92
2022-10-01T16:22:32.748Z,92.11
2022-10-01T16:25:03.291Z,91.04
2022-10-01T16:27:35.692Z,92.11
2022-10-01T16:30:11.990Z,89.97
2022-10-01T16:32:39.691Z,89.42
2022-10-01T16:35:18.987Z,90.85
2022-10-01T16:37:47.561Z,89.95
2022-10-01T16:40:17.224Z,90.41
2022-10-01T16:42:45.925Z,90.69
2022-10-01T16:45:16.913Z,89.98
2022-10-01T16:47:45.020Z,89.15
2022-10-01T16:50:14.663Z,87.89
2022-10-01T16:52:42.561Z,88.84
2022-10-01T16:55:22.709Z,88.55
2022-10-01T16:57:50.987Z,89.39
2022-10-01T17:00:20.595Z,88.04
2022-10-01T17:02:48.614Z,88.53
2022-10-01T17:05:19.735Z,88.45
2022-10-01T17:07:47.486Z,87.94
2022-10-01T17:10:16.401Z,87.77
2022-10-01T17:12:47.708Z,90.09
2022-10-01T17:15:18.204Z,88.86
2022-10-01T17:17:46.535Z,87.91
2022-10-01T17:20:15.027Z,88.59
2022-10-01T17:22:43.569Z,88.09
2022-10-01T17:25:16.093Z,89.22
2022-10-01T17:27:45.683Z,88.50
2022-10-01T17:30:13.979Z,89.94
2022-10-01T17:32:42.995Z,90.55
2022-10-01T17:35:12.513Z,90.68
2022-10-01T17:37:40.926Z,92.37
2022-10-01T17:40:10.361Z,92.66
2022-10-01T17:42:38.280Z,92.06
2022-10-01T17:45:09.911Z,93.36
2022-10-01T17:47:37.977Z,92.18
2022-10-01T17:50:06.577Z,91.98
2022-10-01T17:52:34.341Z,91.95
2022-10-01T17:55:02.066Z,91.74
2022-10-01T17:57:29.808Z,93.65
2022-10-01T17:59:57.608Z,94.14
2022-10-01T18:02:41.423Z,93.23
2022-10-01T18:05:12.647Z,92.68
2022-10-01T18:07:40.963Z,91.24
2022-10-01T18:10:10.893Z,88.49
2022-10-01T18:12:39.014Z,88.67
2022-10-01T18:15:07.800Z,86.30
2022-10-01T18:17:42.973Z,86.33
2022-10-01T18:20:11.299Z,87.92
2022-10-01T18:22:39.168Z,88.29
2022-10-01T18:25:07.555Z,91.32
2022-10-01T18:27:35.401Z,93.00
2022-10-01T18:30:03.197Z,92.38
2022-10-01T18:32:37.927Z,91.43
2022-10-01T18:35:20.326Z,92.28
2022-10-01T18:37:52.629Z,93.20
2022-10-01T18:40:23.067Z,92.77
2022-10-01T18:42:55.852Z,91.94
2022-10-01T18:45:38.421Z,92.91
2022-10-01T18:48:29.012Z,92.02
2022-10-01T18:51:07.730Z,92.71
2022-10-01T18:53:56.847Z,92.37
2022-10-01T18:56:33.305Z,93.34
2022-10-01T18:59:19.038Z,92.35
2022-10-01T19:01:59.711Z,93.14
2022-10-01T19:05:05.342Z,93.09
2022-10-01T19:07:48.300Z,94.05
2022-10-01T19:10:24.078Z,93.23
2022-10-01T19:12:59.824Z,92.70
2022-10-01T19:15:40.138Z,94.12
2022-10-01T19:18:25.516Z,93.52
2022-10-01T19:21:03.052Z,92.92
2022-10-01T19:24:10.776Z,94.04
2022-10-01T19:26:44.458Z,94.36
2022-10-01T19:29:32.858Z,93.90
2022-10-01T19:32:04.480Z,93.84
2022-10-01T19:34:38.928Z,93.84
2022-10-01T19:37:13.584Z,93.33
2022-10-01T19:39:46.427Z,93.24
2022-10-01T19:42:19.808Z,92.27
2022-10-01T19:44:58.647Z,94.79
2022-10-01T19:47:40.151Z,93.20
2022-10-01T19:50:19.516Z,93.02
2022-10-01T19:52:51.443Z,94.02
2022-10-01T19:55:23.910Z,93.52
2022-10-01T19:57:52.691Z,93.00
2022-10-01T20:00:22.673Z,93.29
2022-10-01T20:02:57.958Z,93.23
2022-10-01T20:05:29.547Z,92.89
2022-10-01T20:08:06.161Z,92.93
2022-10-01T20:10:39.577Z,93.90
2022-10-01T20:13:34.364Z,94.15
2022-10-01T20:16:14.816Z,94.78
2022-10-01T20:18:50.219Z,93.33
2022-10-01T20:21:42.720Z,93.44
2022-10-01T20:24:28.773Z,93.18
2022-10-01T20:27:10.347Z,94.55
2022-10-01T20:29:44.858Z,95.07
2022-10-01T20:32:19.880Z,94.29
2022-10-01T20:35:01.613Z,93.67
2022-10-01T20:37:44.215Z,93.05
2022-10-01T20:40:18.699Z,94.64
2022-10-01T20:42:51.301Z,94.18
2022-10-01T20:45:23.846Z,93.19
2022-10-01T20:47:57.993Z,93.92
2022-10-01T20:50:32.440Z,93.80
2022-10-01T20:53:10.842Z,94.47
2022-10-01T20:55:42.430Z,94.96
2022-10-01T20:58:19.846Z,93.58
2022-10-01T21:00:51.858Z,95.27
2022-10-01T21:03:26.528Z,93.69
2022-10-01T21:05:58.781Z,94.39
2022-10-01T21:08:39.500Z,95.03
2022-10-01T21:11:14.427Z,94.60
2022-10-01T21:13:50.188Z,94.38
2022-10-01T21:16:38.409Z,94.46
2022-10-01T21:19:24.240Z,94.78
2022-10-01T21:22:01.419Z,96.32
2022-10-01T21:24:45.302Z,96.12
2022-10-01T21:27:29.577Z,94.61
2022-10-01T21:30:17.209Z,94.38
2022-10-01T21:33:05.507Z,94.27
2022-10-01T21:35:44.563Z,90.44
2022-10-01T21:38:22.644Z,94.31
2022-10-01T21:41:06.890Z,94.41
2022-10-01T21:43:50.483Z,95.38
2022-10-01T21:46:27.333Z,96.39
2022-10-01T21:49:00.100Z,95.49
2022-10-01T21:51:38.944Z,95.95
2022-10-01T21:54:45.028Z,94.47
2022-10-01T21:57:28.414Z,96.62
2022-10-01T22:00:20.264Z,96.24
2022-10-01T22:02:58.727Z,95.78
2022-10-01T22:05:33.775Z,96.82
2022-10-01T22:08:11.727Z,97.56
2022-10-01T22:10:43.236Z,96.67
2022-10-01T22:13:16.978Z,95.83
2022-10-01T22:15:46.087Z,95.67
2022-10-01T22:18:20.385Z,96.22
2022-10-01T22:20:48.800Z,95.14
2022-10-01T22:23:19.624Z,96.54
2022-10-01T22:25:53.872Z,95.19
2022-10-01T22:28:28.007Z,95.47
2022-10-01T22:30:59.250Z,95.16
2022-10-01T22:33:34.166Z,95.39
2022-10-01T22:36:08.373Z,94.71
2022-10-01T22:38:41.778Z,94.90
2022-10-01T22:41:16.908Z,94.99
2022-10-01T22:43:45.865Z,95.53
2022-10-01T22:46:49.607Z,97.17
2022-10-01T22:49:32.218Z,96.32
2022-10-01T22:52:07.951Z,97.01
2022-10-01T22:54:48.590Z,97.05
2022-10-01T22:57:28.955Z,97.30
2022-10-01T23:00:03.085Z,97.79
2022-10-01T23:02:54.509Z,96.92
2022-10-01T23:05:38.016Z,94.67
2022-10-01T23:08:15.311Z,94.09
2022-10-01T23:10:56.466Z,95.43
2022-10-01T23:13:31.272Z,96.76
2022-10-01T23:16:05.535Z,96.12
2022-10-01T23:18:43.873Z,97.26
2022-10-01T23:21:26.179Z,97.41
2022-10-01T23:24:02.420Z,96.00
2022-10-01T23:26:39.098Z,95.13
2022-10-01T23:29:34.320Z,94.13
2022-10-01T23:32:14.139Z,96.65
2022-10-01T23:34:51.787Z,96.40
2022-10-01T23:37:50.019Z,95.96
2022-10-01T23:40:21.297Z,95.12
2022-10-01T23:42:58.066Z,96.42
2022-10-01T23:45:31.838Z,96.59
2022-10-01T23:48:05.422Z,98.11
2022-10-01T23:50:38.784Z,96.61
2022-10-01T23:53:15.210Z,98.04
2022-10-01T23:56:06.864Z,99.40
2022-10-01T23:58:42.904Z,98.26
